createdAt,value
2023-04-02T00:00:32.818Z,96.30
2023-04-02T00:01:38.701Z,96.30
2023-04-02T00:02:58.772Z,96.30
2023-04-02T00:04:16.375Z,96.30
2023-04-02T00:05:56.022Z,96.30
2023-04-02T00:07:30.758Z,96.30
2023-04-02T00:08:41.086Z,96.30
2023-04-02T00:09:44.965Z,96.30
2023-04-02T00:10:49.904Z,96.30
2023-04-02T00:11:55.747Z,96.30
2023-04-02T00:13:05.698Z,96.30
2023-04-02T00:14:19.117Z,96.30
2023-04-02T00:15:21.808Z,96.30
2023-04-02T00:16:27.435Z,96.30
2023-04-02T00:17:29.853Z,96.30
2023-04-02T00:18:35.366Z,96.30
2023-04-02T00:19:45.860Z,96.30
2023-04-02T00:20:57.491Z,96.30
2023-04-02T00:22:02.212Z,96.30
2023-04-02T00:23:06.730Z,96.30
2023-04-02T00:24:16.768Z,96.30
2023-04-02T00:25:20.909Z,96.30
2023-04-02T00:26:29.901Z,96.30
2023-04-02T00:27:33.298Z,96.30
2023-04-02T00:28:35.968Z,96.30
2023-04-02T00:29:48.342Z,96.30
2023-04-02T00:30:55.339Z,96.30
2023-04-02T00:32:01.100Z,96.30
2023-04-02T00:33:03.771Z,96.30
2023-04-02T00:34:11.622Z,96.30
2023-04-02T00:35:20.985Z,96.30
2023-04-02T00:36:30.686Z,96.30
2023-04-02T00:37:39.354Z,96.30
2023-04-02T00:38:46.833Z,96.30
2023-04-02T00:39:56.134Z,96.30
2023-04-02T00:41:03.520Z,96.30
2023-04-02T00:42:06.468Z,96.30
2023-04-02T00:43:16.468Z,96.30
2023-04-02T00:44:21.915Z,96.30
2023-04-02T00:45:29.771Z,96.30
2023-04-02T00:46:47.272Z,96.30
2023-04-02T00:47:51.825Z,96.30
2023-04-02T00:49:01.245Z,96.30
2023-04-02T00:50:19.492Z,96.30
2023-04-02T00:51:29.246Z,96.30
2023-04-02T00:52:34.554Z,96.30
2023-04-02T00:53:38.896Z,96.30
2023-04-02T00:54:49.317Z,96.30
2023-04-02T00:55:52.306Z,96.30
2023-04-02T00:56:58.804Z,96.30
2023-04-02T00:58:02.469Z,96.30
2023-04-02T00:59:06.421Z,96.30
2023-04-02T01:00:22.338Z,96.30
2023-04-02T01:01:29.569Z,96.30
2023-04-02T01:02:35.863Z,96.30
2023-04-02T01:03:39.019Z,96.30
2023-04-02T01:04:43.147Z,96.30
2023-04-02T01:05:50.274Z,96.30
2023-04-02T01:06:56.621Z,96.30
2023-04-02T01:08:09.392Z,96.30
2023-04-02T01:09:29.499Z,96.30
2023-04-02T01:10:51.876Z,96.30
2023-04-02T01:12:25.996Z,96.30
2023-04-02T01:13:39.196Z,96.30
2023-04-02T01:14:54.381Z,96.30
2023-04-02T01:16:07.359Z,96.30
2023-04-02T01:17:30.394Z,96.30
2023-04-02T01:18:50.655Z,96.30
2023-04-02T01:20:58.715Z,96.30
2023-04-02T01:22:07.106Z,96.30
2023-04-02T01:23:17.042Z,96.30
2023-04-02T01:24:21.364Z,96.30
2023-04-02T01:25:37.576Z,96.30
2023-04-02T01:26:53.178Z,96.30
2023-04-02T01:28:07.463Z,96.30
2023-04-02T01:29:14.670Z,96.30
2023-04-02T01:30:18.755Z,96.30
2023-04-02T01:31:22.716Z,96.30
2023-04-02T01:32:29.949Z,96.30
2023-04-02T01:33:35.258Z,96.30
2023-04-02T01:34:39.108Z,96.30
2023-04-02T01:35:49.537Z,96.30
2023-04-02T01:37:23.089Z,96.30
2023-04-02T01:38:30.187Z,96.30
2023-04-02T01:39:49.288Z,96.30
2023-04-02T01:41:03.038Z,96.30
2023-04-02T01:42:15.905Z,96.30
2023-04-02T01:43:29.857Z,96.30
2023-04-02T01:44:40.979Z,96.30
2023-04-02T01:45:45.039Z,96.30
2023-04-02T01:46:50.044Z,96.30
2023-04-02T01:47:53.561Z,96.30
2023-04-02T01:48:56.918Z,96.30
2023-04-02T01:50:05.397Z,96.30
2023-04-02T01:51:08.736Z,96.30
2023-04-02T01:52:19.135Z,96.30
2023-04-02T01:53:27.708Z,96.30
2023-04-02T01:54:33.402Z,96.30
2023-04-02T01:55:45.915Z,96.30
2023-04-02T01:56:53.007Z,96.30
2023-04-02T01:57:57.632Z,96.30
2023-04-02T01:59:02.987Z,96.30
2023-04-02T02:00:16.747Z,96.30
2023-04-02T02:01:30.375Z,96.30
2023-04-02T02:02:35.134Z,96.30
2023-04-02T02:03:43.411Z,96.30
2023-04-02T02:04:47.404Z,96.30
2023-04-02T02:05:52.388Z,96.30
2023-04-02T02:06:56.982Z,96.30
2023-04-02T02:08:02.185Z,96.30
2023-04-02T02:09:07.450Z,96.30
2023-04-02T02:10:17.481Z,96.30
2023-04-02T02:11:22.250Z,96.30
2023-04-02T02:12:25.781Z,96.30
2023-04-02T02:13:28.389Z,96.30
2023-04-02T02:14:32.788Z,96.30
2023-04-02T02:15:37.122Z,96.30
2023-04-02T02:16:43.178Z,96.30
2023-04-02T02:17:46.010Z,96.30
2023-04-02T02:18:56.068Z,96.30
2023-04-02T02:20:02.547Z,96.30
2023-04-02T02:21:09.254Z,96.30
2023-04-02T02:22:22.166Z,96.30
2023-04-02T02:23:26.135Z,96.30
2023-04-02T02:24:32.591Z,96.30
2023-04-02T02:25:37.858Z,96.30
2023-04-02T02:26:42.582Z,96.30
2023-04-02T02:27:55.934Z,96.30
2023-04-02T02:29:01.471Z,96.30
2023-04-02T02:30:14.600Z,96.30
2023-04-02T02:31:28.146Z,96.30
2023-04-02T02:32:35.332Z,96.30
2023-04-02T02:33:42.783Z,96.30
2023-04-02T02:34:55.951Z,96.30
2023-04-02T02:36:04.149Z,96.30
2023-04-02T02:37:17.201Z,96.30
2023-04-02T02:38:52.118Z,96.30
2023-04-02T02:40:05.521Z,96.30
2023-04-02T02:41:16.642Z,96.30
2023-04-02T02:42:29.044Z,96.30
2023-04-02T02:43:33.205Z,96.30
2023-04-02T02:44:41.294Z,96.30
2023-04-02T02:45:47.399Z,96.30
2023-04-02T02:46:57.799Z,96.30
2023-04-02T02:48:02.286Z,96.30
2023-04-02T02:49:07.580Z,96.30
2023-04-02T02:50:19.229Z,96.30
2023-04-02T02:51:29.831Z,96.30
2023-04-02T02:52:37.129Z,96.30
2023-04-02T02:53:51.806Z,96.30
2023-04-02T02:54:59.075Z,96.30
2023-04-02T02:56:07.471Z,96.30
2023-04-02T02:57:20.724Z,96.30
2023-04-02T02:58:29.113Z,96.30
2023-04-02T02:59:58.485Z,96.30
2023-04-02T03:01:01.636Z,96.30
2023-04-02T03:02:08.159Z,96.30
2023-04-02T03:03:15.188Z,96.30
2023-04-02T03:04:23.602Z,96.30
2023-04-02T03:05:30.053Z,96.30
2023-04-02T03:06:40.154Z,96.30
2023-04-02T03:07:43.618Z,96.30
2023-04-02T03:08:53.178Z,96.30
2023-04-02T03:10:06.843Z,96.30
2023-04-02T03:11:20.320Z,96.30
2023-04-02T03:12:38.685Z,96.30
2023-04-02T03:13:47.719Z,96.30
2023-04-02T03:15:00.811Z,96.30
2023-04-02T03:16:12.780Z,96.30
2023-04-02T03:17:21.781Z,96.30
2023-04-02T03:18:42.689Z,96.30
2023-04-02T03:19:52.460Z,96.30
2023-04-02T03:21:01.853Z,96.30
2023-04-02T03:22:13.157Z,96.30
2023-04-02T03:23:22.568Z,96.30
2023-04-02T03:24:36.353Z,96.30
2023-04-02T03:25:44.661Z,96.30
2023-04-02T03:26:55.144Z,96.30
2023-04-02T03:28:04.026Z,96.30
2023-04-02T03:29:21.170Z,96.30
2023-04-02T03:30:38.862Z,96.30
2023-04-02T03:31:49.009Z,96.30
2023-04-02T03:33:00.472Z,96.30
2023-04-02T03:34:12.552Z,96.30
2023-04-02T03:35:22.389Z,96.30
2023-04-02T03:36:32.219Z,96.30
2023-04-02T03:37:42.789Z,96.30
2023-04-02T03:38:53.076Z,96.30
2023-04-02T03:40:00.341Z,96.30
2023-04-02T03:41:12.926Z,96.30
2023-04-02T03:42:21.743Z,96.30
2023-04-02T03:43:29.800Z,96.30
2023-04-02T03:44:36.752Z,96.30
2023-04-02T03:45:45.059Z,96.30
2023-04-02T03:46:57.690Z,96.30
2023-04-02T03:48:11.669Z,96.30
2023-04-02T03:49:25.642Z,96.30
2023-04-02T03:50:37.163Z,96.30
2023-04-02T03:51:48.958Z,96.30
2023-04-02T03:52:52.862Z,96.30
2023-04-02T03:53:56.342Z,96.30
2023-04-02T03:55:03.694Z,96.30
2023-04-02T03:56:07.892Z,96.30
2023-04-02T03:57:21.132Z,96.30
2023-04-02T03:58:32.126Z,96.30
2023-04-02T03:59:43.771Z,96.30
2023-04-02T04:00:55.998Z,96.30
2023-04-02T04:02:03.556Z,96.30
2023-04-02T04:03:14.570Z,96.30
2023-04-02T04:04:21.454Z,96.30
2023-04-02T04:05:29.378Z,96.30
2023-04-02T04:06:36.250Z,96.30
2023-04-02T04:07:41.823Z,96.30
2023-04-02T04:08:51.728Z,96.30
2023-04-02T04:09:56.244Z,96.30
2023-04-02T04:11:04.683Z,96.30
2023-04-02T04:12:19.060Z,96.30
2023-04-02T04:13:32.389Z,96.30
2023-04-02T04:14:44.113Z,96.30
2023-04-02T04:15:56.520Z,96.30
2023-04-02T04:17:04.814Z,96.30
2023-04-02T04:18:24.162Z,96.30
2023-04-02T04:19:38.208Z,96.30
2023-04-02T04:20:49.989Z,96.30
2023-04-02T04:21:57.172Z,96.30
2023-04-02T04:23:25.852Z,96.30
2023-04-02T04:24:29.209Z,96.30
2023-04-02T04:25:37.337Z,96.30
2023-04-02T04:26:57.690Z,96.30
2023-04-02T04:28:18.679Z,96.30
2023-04-02T04:29:38.317Z,96.30
2023-04-02T04:30:53.376Z,96.30
2023-04-02T04:32:09.150Z,96.30
2023-04-02T04:33:22.982Z,96.30
2023-04-02T04:34:46.875Z,96.30
2023-04-02T04:35:57.556Z,96.30
2023-04-02T04:37:07.960Z,96.30
2023-04-02T04:38:18.341Z,96.30
2023-04-02T04:39:29.969Z,96.30
2023-04-02T04:40:36.197Z,96.30
2023-04-02T04:41:42.565Z,96.30
2023-04-02T04:42:47.953Z,96.30
2023-04-02T04:43:58.220Z,96.30
2023-04-02T04:45:14.622Z,96.30
2023-04-02T04:46:22.800Z,96.30
2023-04-02T04:47:33.903Z,96.30
2023-04-02T04:48:49.216Z,96.30
2023-04-02T04:49:58.005Z,96.30
2023-04-02T04:51:04.388Z,96.30
2023-04-02T04:52:15.762Z,96.30
2023-04-02T04:53:23.775Z,96.30
2023-04-02T04:54:30.140Z,96.30
2023-04-02T04:55:39.899Z,96.30
2023-04-02T04:56:48.909Z,96.30
2023-04-02T04:57:59.864Z,96.30
2023-04-02T04:59:07.987Z,96.30
2023-04-02T05:00:18.900Z,96.30
2023-04-02T05:01:29.094Z,96.30
2023-04-02T05:02:41.286Z,96.30
2023-04-02T05:03:56.123Z,96.30
2023-04-02T05:05:04.149Z,96.30
2023-04-02T05:06:24.888Z,96.30
2023-04-02T05:07:32.684Z,96.30
2023-04-02T05:08:42.124Z,96.30
2023-04-02T05:09:54.189Z,96.30
2023-04-02T05:11:03.501Z,96.30
2023-04-02T05:12:18.312Z,96.30
2023-04-02T05:13:29.636Z,96.30
2023-04-02T05:14:39.970Z,96.30
2023-04-02T05:15:51.224Z,96.30
2023-04-02T05:17:05.876Z,96.30
2023-04-02T05:18:23.801Z,96.30
2023-04-02T05:19:39.172Z,96.30
2023-04-02T05:20:48.847Z,96.30
2023-04-02T05:22:01.451Z,96.30
2023-04-02T05:23:15.752Z,96.30
2023-04-02T05:24:48.692Z,96.30
2023-04-02T05:25:56.416Z,96.30
2023-04-02T05:27:05.796Z,96.30
2023-04-02T05:28:18.504Z,96.30
2023-04-02T05:29:28.545Z,96.30
2023-04-02T05:30:49.585Z,96.30
2023-04-02T05:32:05.559Z,96.30
2023-04-02T05:33:24.386Z,96.30
2023-04-02T05:34:37.366Z,96.30
2023-04-02T05:35:47.240Z,96.30
2023-04-02T05:36:51.950Z,96.30
2023-04-02T05:37:55.414Z,96.30
2023-04-02T05:39:01.176Z,96.30
2023-04-02T05:40:24.009Z,96.30
2023-04-02T05:41:32.235Z,96.30
2023-04-02T05:42:41.530Z,96.30
2023-04-02T05:43:49.824Z,96.30
2023-04-02T05:45:11.090Z,96.30
2023-04-02T05:46:20.899Z,96.30
2023-04-02T05:47:28.793Z,96.30
2023-04-02T05:48:38.865Z,96.30
2023-04-02T05:49:52.044Z,96.30
2023-04-02T05:50:58.872Z,96.30
2023-04-02T05:52:13.581Z,96.30
2023-04-02T05:53:24.838Z,96.30
2023-04-02T05:54:34.427Z,96.30
2023-04-02T05:55:52.097Z,96.30
2023-04-02T05:57:01.787Z,96.30
2023-04-02T05:58:31.846Z,96.30
2023-04-02T05:59:43.626Z,96.30
2023-04-02T06:01:04.340Z,96.30
2023-04-02T06:02:19.325Z,96.30
2023-04-02T06:03:29.995Z,96.30
2023-04-02T06:05:48.304Z,96.30
2023-04-02T06:07:00.468Z,96.30
2023-04-02T06:08:09.574Z,96.30
2023-04-02T06:09:19.337Z,96.30
2023-04-02T06:10:28.668Z,96.30
2023-04-02T06:11:42.208Z,96.30
2023-04-02T06:12:53.186Z,96.30
2023-04-02T06:13:57.231Z,96.30
2023-04-02T06:15:02.979Z,96.30
2023-04-02T06:16:13.278Z,96.30
2023-04-02T06:17:19.638Z,96.30
2023-04-02T06:18:27.238Z,96.30
2023-04-02T06:19:38.206Z,96.30
2023-04-02T06:20:41.409Z,96.30
2023-04-02T06:21:53.792Z,96.30
2023-04-02T06:23:03.727Z,96.30
2023-04-02T06:24:12.957Z,96.30
2023-04-02T06:25:23.535Z,96.30
2023-04-02T06:26:34.561Z,96.30
2023-04-02T06:27:41.034Z,96.30
2023-04-02T06:28:52.385Z,96.30
2023-04-02T06:30:07.697Z,96.30
2023-04-02T06:31:28.367Z,96.30
2023-04-02T06:32:34.085Z,96.30
2023-04-02T06:33:37.862Z,96.30
2023-04-02T06:34:44.366Z,96.30
2023-04-02T06:35:52.825Z,96.30
2023-04-02T06:37:17.423Z,96.30
2023-04-02T06:38:28.404Z,96.30
2023-04-02T06:39:33.680Z,96.30
2023-04-02T06:40:44.277Z,96.30
2023-04-02T06:42:12.633Z,96.30
2023-04-02T06:43:39.797Z,96.30
2023-04-02T06:45:04.088Z,96.30
2023-04-02T06:46:30.609Z,96.30
2023-04-02T06:47:43.380Z,96.30
2023-04-02T06:49:00.483Z,96.30
2023-04-02T06:50:13.510Z,96.30
2023-04-02T06:51:20.706Z,96.30
2023-04-02T06:52:32.873Z,96.30
2023-04-02T06:53:43.325Z,96.30
2023-04-02T06:54:50.597Z,96.30
2023-04-02T06:56:04.337Z,96.30
2023-04-02T06:57:14.325Z,96.30
2023-04-02T06:58:20.176Z,96.30
2023-04-02T06:59:24.680Z,96.30
2023-04-02T07:00:35.056Z,96.30
2023-04-02T07:01:45.024Z,96.30
2023-04-02T07:02:48.111Z,96.30
2023-04-02T07:03:52.450Z,96.30
2023-04-02T07:05:11.014Z,96.30
2023-04-02T07:06:22.114Z,96.30
2023-04-02T07:07:30.037Z,96.30
2023-04-02T07:08:34.521Z,96.30
2023-04-02T07:09:44.022Z,96.30
2023-04-02T07:10:47.220Z,96.30
2023-04-02T07:11:51.037Z,96.30
2023-04-02T07:12:54.517Z,96.30
2023-04-02T07:14:02.719Z,96.30
2023-04-02T07:15:08.997Z,96.30
2023-04-02T07:16:19.122Z,96.30
2023-04-02T07:17:23.411Z,96.30
2023-04-02T07:18:29.714Z,96.30
2023-04-02T07:19:34.992Z,96.30
2023-04-02T07:20:38.078Z,96.30
2023-04-02T07:21:46.071Z,96.30
2023-04-02T07:22:49.889Z,96.30
2023-04-02T07:23:53.934Z,96.30
2023-04-02T07:24:57.074Z,96.30
2023-04-02T07:26:02.340Z,96.30
2023-04-02T07:27:06.156Z,96.30
2023-04-02T07:28:09.279Z,96.30
2023-04-02T07:29:18.059Z,96.30
2023-04-02T07:30:20.912Z,96.30
2023-04-02T07:31:27.767Z,96.30
2023-04-02T07:32:30.765Z,96.30
2023-04-02T07:33:34.240Z,96.30
2023-04-02T07:34:37.199Z,96.30
2023-04-02T07:35:41.273Z,96.30
2023-04-02T07:36:46.813Z,96.30
2023-04-02T07:37:52.951Z,96.30
2023-04-02T07:38:56.813Z,96.30
2023-04-02T07:39:59.884Z,96.30
2023-04-02T07:41:07.490Z,96.30
2023-04-02T07:42:11.237Z,96.30
2023-04-02T07:43:18.310Z,96.30
2023-04-02T07:44:21.276Z,96.30
2023-04-02T07:45:25.431Z,96.30
2023-04-02T07:46:29.322Z,96.30
2023-04-02T07:47:32.080Z,96.30
2023-04-02T07:48:36.880Z,96.30
2023-04-02T07:49:40.157Z,96.30
2023-04-02T07:50:43.887Z,96.30
2023-04-02T07:51:46.628Z,96.30
2023-04-02T07:52:52.529Z,96.30
2023-04-02T07:53:57.197Z,96.30
2023-04-02T07:54:59.675Z,96.30
2023-04-02T07:56:07.627Z,96.30
2023-04-02T07:57:10.719Z,96.30
2023-04-02T07:58:17.136Z,96.30
2023-04-02T08:01:03.860Z,96.30
2023-04-02T08:02:08.053Z,96.30
2023-04-02T08:03:13.346Z,96.30
2023-04-02T08:04:21.764Z,96.30
2023-04-02T08:05:25.058Z,96.30
2023-04-02T08:06:29.296Z,96.30
2023-04-02T08:07:32.036Z,96.30
2023-04-02T08:08:37.440Z,96.30
2023-04-02T08:09:41.623Z,96.30
2023-04-02T08:10:44.195Z,96.30
2023-04-02T08:11:48.648Z,96.30
2023-04-02T08:12:51.948Z,96.30
2023-04-02T08:13:55.512Z,96.30
2023-04-02T08:15:00.390Z,96.30
2023-04-02T08:16:04.394Z,96.30
2023-04-02T08:17:08.063Z,96.30
2023-04-02T08:18:13.173Z,96.30
2023-04-02T08:19:19.090Z,96.30
2023-04-02T08:20:24.841Z,96.30
2023-04-02T08:21:31.752Z,96.30
2023-04-02T08:22:34.588Z,96.30
2023-04-02T08:23:40.661Z,96.30
2023-04-02T08:24:44.542Z,96.30
2023-04-02T08:25:47.439Z,96.30
2023-04-02T08:26:55.871Z,96.30
2023-04-02T08:27:58.562Z,96.30
2023-04-02T08:29:02.125Z,96.30
2023-04-02T08:30:08.008Z,96.30
2023-04-02T08:31:13.563Z,96.30
2023-04-02T08:32:18.128Z,96.30
2023-04-02T08:33:21.895Z,96.30
2023-04-02T08:34:25.566Z,96.30
2023-04-02T08:35:29.409Z,96.30
2023-04-02T08:36:38.883Z,96.30
2023-04-02T08:37:43.228Z,96.30
2023-04-02T08:38:48.751Z,96.30
2023-04-02T08:39:51.165Z,96.30
2023-04-02T08:41:02.310Z,96.30
2023-04-02T08:42:20.038Z,96.30
2023-04-02T08:43:57.704Z,96.30
2023-04-02T08:45:25.443Z,96.30
2023-04-02T08:46:39.766Z,96.30
2023-04-02T08:47:45.565Z,96.30
2023-04-02T08:50:34.505Z,96.30
2023-04-02T08:51:38.626Z,96.30
2023-04-02T08:52:41.572Z,96.30
2023-04-02T08:53:45.053Z,96.30
2023-04-02T08:54:50.144Z,96.30
2023-04-02T08:57:48.600Z,96.30
2023-04-02T08:58:55.967Z,96.30
2023-04-02T09:00:06.524Z,96.30
2023-04-02T09:01:22.574Z,96.30
2023-04-02T09:02:35.775Z,96.30
2023-04-02T09:03:44.367Z,96.30
2023-04-02T09:04:48.124Z,96.30
2023-04-02T09:05:52.572Z,96.30
2023-04-02T09:06:59.140Z,96.30
2023-04-02T09:08:09.802Z,96.30
2023-04-02T09:09:15.458Z,96.30
2023-04-02T09:10:22.054Z,96.30
2023-04-02T09:11:32.055Z,96.30
2023-04-02T09:12:36.714Z,96.30
2023-04-02T09:13:46.561Z,96.30
2023-04-02T09:15:12.298Z,96.30
2023-04-02T09:16:21.407Z,96.30
2023-04-02T09:17:26.458Z,96.30
2023-04-02T09:18:32.175Z,96.30
2023-04-02T09:19:39.684Z,96.30
2023-04-02T09:20:42.569Z,96.30
2023-04-02T09:21:56.974Z,96.30
2023-04-02T09:23:00.212Z,96.30
2023-04-02T09:24:05.336Z,96.30
2023-04-02T09:25:18.189Z,96.30
2023-04-02T09:26:25.270Z,96.30
2023-04-02T09:27:31.700Z,96.30
2023-04-02T09:28:34.246Z,96.30
2023-04-02T09:29:45.474Z,96.30
2023-04-02T09:31:13.711Z,96.30
2023-04-02T09:32:46.858Z,96.30
2023-04-02T09:33:53.161Z,96.30
2023-04-02T09:35:24.642Z,96.30
2023-04-02T09:36:38.804Z,96.30
2023-04-02T09:37:41.496Z,96.30
2023-04-02T09:39:01.570Z,95.00
2023-04-02T09:40:41.640Z,93.30
2023-04-02T09:41:52.874Z,91.00
2023-04-02T09:43:13.034Z,90.00
2023-04-02T09:44:24.180Z,88.40
2023-04-02T09:45:28.763Z,87.00
2023-04-02T09:47:37.220Z,85.40
2023-04-02T09:48:46.516Z,83.60
2023-04-02T09:49:49.106Z,82.80
2023-04-02T09:51:04.258Z,82.20
2023-04-02T09:52:22.385Z,81.60
2023-04-02T09:53:30.859Z,80.20
2023-04-02T09:54:41.507Z,79.80
2023-04-02T09:55:43.923Z,78.30
2023-04-02T09:57:03.206Z,78.00
2023-04-02T09:58:15.410Z,78.20
2023-04-02T09:59:21.860Z,77.00
2023-04-02T10:00:32.135Z,76.70
2023-04-02T10:01:39.330Z,76.00
2023-04-02T10:02:41.973Z,76.70
2023-04-02T10:04:50.269Z,74.90
2023-04-02T10:06:09.289Z,75.90
2023-04-02T10:07:36.456Z,76.00
2023-04-02T10:08:42.964Z,76.60
2023-04-02T10:09:45.291Z,76.70
2023-04-02T10:10:52.399Z,76.80
2023-04-02T10:11:56.207Z,76.40
2023-04-02T10:13:04.471Z,75.50
2023-04-02T10:14:17.250Z,74.90
2023-04-02T10:15:27.576Z,74.70
2023-04-02T10:16:35.246Z,74.80
2023-04-02T10:17:39.631Z,74.90
2023-04-02T10:18:49.749Z,75.20
2023-04-02T10:19:57.544Z,75.70
2023-04-02T10:21:04.858Z,76.00
2023-04-02T10:22:14.288Z,75.80
2023-04-02T10:23:19.834Z,75.40
2023-04-02T10:24:23.924Z,73.50
2023-04-02T10:25:33.142Z,74.00
2023-04-02T10:27:03.283Z,73.40
2023-04-02T10:28:19.272Z,74.30
2023-04-02T10:29:50.683Z,74.40
2023-04-02T10:31:02.679Z,74.10
2023-04-02T10:32:12.506Z,74.40
2023-04-02T10:33:24.230Z,74.60
2023-04-02T10:34:42.852Z,76.30
2023-04-02T10:35:56.515Z,78.20
2023-04-02T10:37:06.784Z,78.40
2023-04-02T10:38:26.728Z,78.60
2023-04-02T10:39:39.905Z,76.90
2023-04-02T10:40:49.240Z,76.70
2023-04-02T10:42:00.576Z,77.20
2023-04-02T10:43:43.231Z,76.70
2023-04-02T10:44:56.940Z,75.80
2023-04-02T10:46:09.044Z,75.50
2023-04-02T10:47:33.841Z,75.30
2023-04-02T10:48:47.292Z,74.50
2023-04-02T10:50:04.756Z,74.30
2023-04-02T10:51:16.763Z,74.40
2023-04-02T10:52:25.581Z,74.80
2023-04-02T10:53:38.183Z,73.20
2023-04-02T10:54:50.029Z,71.80
2023-04-02T10:55:59.870Z,70.90
2023-04-02T10:57:13.600Z,71.60
2023-04-02T10:58:27.557Z,72.50
2023-04-02T10:59:34.700Z,72.20
2023-04-02T11:00:44.026Z,72.00
2023-04-02T11:01:51.680Z,71.30
2023-04-02T11:03:01.624Z,69.60
2023-04-02T11:04:15.987Z,68.50
2023-04-02T11:05:29.100Z,67.20
2023-04-02T11:06:39.996Z,67.70
2023-04-02T11:07:56.234Z,66.00
2023-04-02T11:09:05.009Z,66.10
2023-04-02T11:10:11.972Z,66.60
2023-04-02T11:11:19.573Z,66.80
2023-04-02T11:12:27.433Z,66.70
2023-04-02T11:13:39.108Z,66.60
2023-04-02T11:14:42.437Z,65.70
2023-04-02T11:15:47.529Z,66.70
2023-04-02T11:16:51.417Z,67.00
2023-04-02T11:17:56.187Z,66.70
2023-04-02T11:19:30.973Z,66.50
2023-04-02T11:21:03.313Z,66.00
2023-04-02T11:22:16.735Z,64.90
2023-04-02T11:23:21.864Z,64.70
2023-04-02T11:24:48.742Z,64.00
2023-04-02T11:25:51.169Z,63.10
2023-04-02T11:26:55.342Z,62.30
2023-04-02T11:28:28.663Z,62.40
2023-04-02T11:29:34.638Z,62.70
2023-04-02T11:30:38.223Z,61.10
2023-04-02T11:31:42.776Z,61.00
2023-04-02T11:32:52.026Z,58.80
2023-04-02T11:33:54.470Z,60.90
2023-04-02T11:35:40.612Z,61.50
2023-04-02T11:37:08.347Z,60.20
2023-04-02T11:38:54.882Z,60.70
2023-04-02T11:39:59.795Z,60.60
2023-04-02T11:41:03.232Z,61.60
2023-04-02T11:42:26.608Z,60.50
2023-04-02T11:43:53.184Z,60.30
2023-04-02T11:45:51.931Z,58.30
2023-04-02T11:47:17.882Z,60.30
2023-04-02T11:48:29.110Z,59.50
2023-04-02T11:49:57.781Z,60.30
2023-04-02T11:51:04.623Z,61.50
2023-04-02T11:52:24.409Z,60.80
2023-04-02T11:53:34.899Z,61.50
2023-04-02T11:54:38.991Z,60.40
2023-04-02T11:55:44.515Z,60.40
2023-04-02T11:56:53.654Z,60.20
2023-04-02T11:58:39.843Z,61.00
2023-04-02T11:59:58.687Z,60.60
2023-04-02T12:01:43.970Z,62.10
2023-04-02T12:03:07.825Z,60.50
2023-04-02T12:05:04.276Z,60.20
2023-04-02T12:06:15.319Z,60.50
2023-04-02T12:07:53.378Z,59.50
2023-04-02T12:09:12.664Z,61.20
2023-04-02T12:10:20.333Z,60.20
2023-04-02T12:11:34.576Z,59.20
2023-04-02T12:12:39.272Z,58.40
2023-04-02T12:13:52.130Z,58.60
2023-04-02T12:14:56.385Z,58.30
2023-04-02T12:16:00.220Z,57.20
2023-04-02T12:17:07.038Z,57.50
2023-04-02T12:18:18.336Z,56.80
2023-04-02T12:19:21.466Z,57.90
2023-04-02T12:20:29.839Z,58.70
2023-04-02T12:21:32.861Z,58.10
2023-04-02T12:22:40.099Z,58.20
2023-04-02T12:23:47.865Z,58.50
2023-04-02T12:24:54.682Z,58.30
2023-04-02T12:26:00.854Z,58.50
2023-04-02T12:27:22.631Z,58.90
2023-04-02T12:28:28.931Z,58.70
2023-04-02T12:29:31.344Z,59.00
2023-04-02T12:30:35.230Z,59.00
2023-04-02T12:31:42.427Z,59.70
2023-04-02T12:32:47.926Z,58.10
2023-04-02T12:33:54.060Z,57.50
2023-04-02T12:35:01.591Z,57.50
2023-04-02T12:36:06.752Z,57.40
2023-04-02T12:37:24.118Z,58.40
2023-04-02T12:38:28.768Z,58.90
2023-04-02T12:39:34.624Z,59.20
2023-04-02T12:40:38.178Z,58.80
2023-04-02T12:41:41.273Z,58.60
2023-04-02T12:42:44.856Z,58.80
2023-04-02T12:43:47.417Z,59.80
2023-04-02T12:44:51.572Z,59.20
2023-04-02T12:45:57.218Z,58.30
2023-04-02T12:47:01.051Z,58.70
2023-04-02T12:48:07.184Z,58.60
2023-04-02T12:49:31.931Z,59.00
2023-04-02T12:50:35.042Z,57.00
2023-04-02T12:51:40.218Z,57.80
2023-04-02T12:52:46.684Z,57.60
2023-04-02T12:53:53.377Z,57.80
2023-04-02T12:54:59.913Z,58.20
2023-04-02T12:56:08.749Z,58.90
2023-04-02T12:57:42.839Z,58.60
2023-04-02T12:58:55.340Z,59.00
2023-04-02T13:00:00.150Z,58.70
2023-04-02T13:01:18.496Z,59.50
2023-04-02T13:02:24.243Z,59.90
2023-04-02T13:03:29.696Z,58.40
2023-04-02T13:04:32.225Z,58.50
2023-04-02T13:05:41.304Z,59.20
2023-04-02T13:06:52.070Z,59.10
2023-04-02T13:07:55.069Z,58.90
2023-04-02T13:08:59.336Z,58.60
2023-04-02T13:10:03.592Z,58.10
2023-04-02T13:11:07.600Z,58.80
2023-04-02T13:12:32.609Z,57.30
2023-04-02T13:13:38.236Z,58.10
2023-04-02T13:14:40.890Z,57.60
2023-04-02T13:15:44.686Z,56.20
2023-04-02T13:16:48.958Z,56.90
2023-04-02T13:18:05.627Z,57.80
2023-04-02T13:19:27.780Z,57.10
2023-04-02T13:20:33.999Z,57.40
2023-04-02T13:21:37.583Z,57.30
2023-04-02T13:22:40.106Z,58.10
2023-04-02T13:23:46.191Z,57.90
2023-04-02T13:24:49.592Z,58.10
2023-04-02T13:25:52.352Z,58.80
2023-04-02T13:26:58.983Z,57.40
2023-04-02T13:28:02.148Z,58.30
2023-04-02T13:29:21.027Z,59.10
2023-04-02T13:30:26.574Z,59.50
2023-04-02T13:31:30.197Z,59.00
2023-04-02T13:32:33.632Z,58.90
2023-04-02T13:33:36.055Z,58.70
2023-04-02T13:34:41.248Z,58.00
2023-04-02T13:35:44.516Z,56.40
2023-04-02T13:36:48.531Z,57.20
2023-04-02T13:37:51.338Z,56.40
2023-04-02T13:38:54.835Z,56.80
2023-04-02T13:39:59.764Z,57.80
2023-04-02T13:41:02.119Z,57.40
2023-04-02T13:42:08.918Z,57.50
2023-04-02T13:43:18.728Z,57.70
2023-04-02T13:44:25.944Z,57.80
2023-04-02T13:45:32.687Z,58.50
2023-04-02T13:46:37.419Z,58.20
2023-04-02T13:47:41.320Z,58.50
2023-04-02T13:48:44.839Z,58.10
2023-04-02T13:49:49.676Z,58.40
2023-04-02T13:50:52.957Z,57.00
2023-04-02T13:51:58.949Z,57.30
2023-04-02T13:53:09.711Z,56.60
2023-04-02T13:54:23.786Z,56.80
2023-04-02T13:55:30.477Z,57.50
2023-04-02T13:56:33.874Z,57.60
2023-04-02T13:57:37.439Z,57.90
2023-04-02T13:58:39.829Z,58.00
2023-04-02T13:59:43.968Z,57.50
2023-04-02T14:00:47.648Z,57.10
2023-04-02T14:01:53.329Z,57.80
2023-04-02T14:03:01.455Z,58.50
2023-04-02T14:04:05.763Z,57.60
2023-04-02T14:05:27.703Z,57.30
2023-04-02T14:06:52.406Z,56.60
2023-04-02T14:08:11.943Z,57.10
2023-04-02T14:09:25.904Z,57.10
2023-04-02T14:10:43.354Z,57.00
2023-04-02T14:11:57.934Z,57.30
2023-04-02T14:13:21.096Z,57.10
2023-04-02T14:14:40.924Z,56.50
2023-04-02T14:16:07.318Z,56.00
2023-04-02T14:17:23.053Z,57.20
2023-04-02T14:18:47.689Z,56.70
2023-04-02T14:20:16.344Z,56.90
2023-04-02T14:21:25.500Z,55.90
2023-04-02T14:22:43.375Z,56.90
2023-04-02T14:24:02.380Z,56.70
2023-04-02T14:25:17.431Z,57.10
2023-04-02T14:26:30.253Z,57.20
2023-04-02T14:27:46.470Z,58.00
2023-04-02T14:29:01.577Z,57.70
2023-04-02T14:30:15.466Z,57.50
2023-04-02T14:31:28.833Z,57.80
2023-04-02T14:32:42.827Z,57.60
2023-04-02T14:33:58.822Z,57.90
2023-04-02T14:35:11.818Z,57.50
2023-04-02T14:36:23.459Z,57.60
2023-04-02T14:37:35.796Z,57.40
2023-04-02T14:38:45.779Z,57.30
2023-04-02T14:40:01.181Z,57.40
2023-04-02T14:41:10.943Z,57.60
2023-04-02T14:42:18.972Z,57.20
2023-04-02T14:43:26.194Z,57.00
2023-04-02T14:44:33.570Z,57.40
2023-04-02T14:45:53.336Z,57.90
2023-04-02T14:47:08.606Z,57.60
2023-04-02T14:48:29.095Z,57.60
2023-04-02T14:49:41.709Z,57.50
2023-04-02T14:50:44.388Z,57.70
2023-04-02T14:51:53.500Z,57.80
2023-04-02T14:53:03.287Z,58.30
2023-04-02T14:54:13.525Z,58.60
2023-04-02T14:55:25.904Z,59.20
2023-04-02T14:56:30.108Z,59.50
2023-04-02T14:57:37.749Z,59.80
2023-04-02T14:58:48.354Z,59.90
2023-04-02T15:00:01.927Z,60.00
2023-04-02T15:01:13.920Z,60.40
2023-04-02T15:02:25.471Z,60.20
2023-04-02T15:03:36.145Z,59.80
2023-04-02T15:04:45.235Z,59.70
2023-04-02T15:05:51.101Z,60.00
2023-04-02T15:07:02.863Z,60.30
2023-04-02T15:08:12.124Z,60.40
2023-04-02T15:09:22.245Z,60.30
2023-04-02T15:10:30.086Z,60.50
2023-04-02T15:11:37.194Z,60.40
2023-04-02T15:12:45.020Z,60.50
2023-04-02T15:13:55.638Z,60.70
2023-04-02T15:15:05.943Z,60.80